ADDS METAR Data INFO
IDs: Format: Raw Decoded Include TAF

Data at: 2011 UTC 19 Oct 2017

KMFD 191952Z 23010KT 10SM CLR 23/08 A3015 RMK AO2 SLP206 T02280083 $
KMFD 191852Z 21016G19KT 10SM CLR 22/09 A3015 RMK AO2 SLP207 T02220089 $
KMFD 191752Z 23009KT 10SM CLR 22/09 A3017 RMK AO2 SLP212 T02170094 10217 20094 58006 $
KMFD 191652Z 24013G18KT 10SM CLR 21/09 A3018 RMK AO2 SLP218 T02060094
KMFD 191552Z 21010KT 10SM CLR 18/09 A3018 RMK AO2 SLP220 T01830089
KMFD 191452Z 23012G18KT 10SM CLR 17/08 A3019 RMK AO2 SLP220 T01720083 51006
KMFD 191352Z 22010KT 10SM CLR 16/08 A3018 RMK AO2 SLP220 T01560078
KMFD 191252Z 22011KT 10SM CLR 13/07 A3017 RMK AO2 SLP218 T01280072
KMFD 191152Z 20007KT 10SM CLR 09/07 A3017 RMK AO2 SLP218 T00940067 10117 20089 55001
KMFD 191052Z 20007KT 10SM CLR 09/06 A3016 RMK AO2 SLP215 T00940061
KMFD 190952Z 19008KT 10SM CLR 11/06 A3016 RMK AO2 SLP213 T01060061
KMFD 190852Z 20008KT 10SM CLR 10/06 A3017 RMK AO2 SLP215 T01000061 55005
KMFD 190752Z 21006KT 10SM CLR 10/06 A3017 RMK AO2 SLP214 T01000061
KMFD 190652Z 21007KT 10SM CLR 10/06 A3018 RMK AO2 SLP217 T01000056
KMFD 190552Z 21008KT 10SM CLR 12/06 A3018 RMK AO2 SLP220 T01170061 10133 20106 53002
KMFD 190452Z 21007KT 10SM CLR 11/05 A3018 RMK AO2 SLP217 T01110050 402060050
KMFD 190352Z 20009KT 10SM CLR 12/05 A3017 RMK AO2 SLP216 T01220050
KMFD 190252Z 17009KT 10SM CLR 12/04 A3018 RMK AO2 SLP218 T01220044 58006
KMFD 190152Z 17009KT 10SM CLR 12/04 A3019 RMK AO2 SLP223 T01220039
KMFD 190052Z 17008KT 10SM CLR 12/04 A3019 RMK AO2 SLP228 T01220044
KMFD 182352Z 19005KT 10SM CLR 13/04 A3020 RMK AO2 SLP229 T01280039 10206 20122 56003
KMFD 182252Z 19007KT 10SM CLR 14/04 A3020 RMK AO2 SLP230 T01390039
KMFD 182152Z 19013KT 10SM CLR 19/03 A3019 RMK AO2 SLP225 T01890033
KMFD 182052Z 20011KT 10SM CLR 20/03 A3020 RMK AO2 SLP229 T02000033 56020
KMFD 181952Z 20015KT 10SM CLR 21/02 A3022 RMK AO2 SLP234 T02060017
KMFD 181852Z 20011KT 10SM CLR 20/04 A3023 RMK AO2 SLP239 T02000039
KMFD 181752Z 17011KT 10SM CLR 19/04 A3027 RMK AO2 SLP248 T01940044 10194 20067 58018
KMFD 181652Z 17010KT 10SM CLR 19/05 A3030 RMK AO2 SLP259 T01890050
KMFD 181552Z 19009KT 10SM CLR 18/06 A3031 RMK AO2 SLP263 T01780061
KMFD 181452Z 18007KT 10SM CLR 16/07 A3032 RMK AO2 SLP268 T01560067 50006 $
KMFD 181352Z 18005KT 10SM CLR 12/06 A3032 RMK AO2 SLP272 T01220061 $
KMFD 181252Z 14003KT 10SM CLR 09/06 A3032 RMK AO2 SLP272 T00890061 $
KMFD 181152Z 00000KT 10SM CLR 07/04 A3030 RMK AO2 SLP266 T00670039 10078 20050 51012 $
KMFD 181052Z 18003KT 10SM CLR 07/03 A3029 RMK AO2 SLP262 T00670033 $
KMFD 180952Z AUTO 00000KT 10SM CLR 07/04 A3029 RMK AO2 SLP258 T00720039 $
KMFD 180852Z AUTO 20004KT 10SM CLR 06/04 A3027 RMK AO2 SLP251 T00610039 56003 $